createdAt,value
2023-05-04T00:01:05.381Z,80.02
2023-05-04T00:03:34.494Z,80.21
2023-05-04T00:06:06.277Z,80.14
2023-05-04T00:08:56.931Z,80.21
2023-05-04T00:11:33.134Z,80.35
2023-05-04T00:14:25.253Z,80.31
2023-05-04T00:16:56.451Z,80.07
2023-05-04T00:19:24.912Z,80.02
2023-05-04T00:22:18.334Z,80.03
2023-05-04T00:25:01.750Z,79.96
2023-05-04T00:27:30.591Z,80.12
2023-05-04T00:30:03.209Z,80.29
2023-05-04T00:32:43.490Z,80.40
2023-05-04T00:35:12.748Z,80.59
2023-05-04T00:37:41.030Z,80.70
2023-05-04T00:40:12.148Z,80.86
2023-05-04T00:42:40.131Z,80.94
2023-05-04T00:45:09.786Z,81.10
2023-05-04T00:47:37.935Z,81.29
2023-05-04T00:50:07.921Z,81.43
2023-05-04T00:52:38.075Z,81.55
2023-05-04T00:55:07.366Z,81.57
2023-05-04T00:57:37.091Z,81.56
2023-05-04T01:00:06.319Z,81.47
2023-05-04T01:02:35.826Z,81.75
2023-05-04T01:05:04.967Z,81.79
2023-05-04T01:07:40.969Z,81.80
2023-05-04T01:10:12.302Z,81.82
2023-05-04T01:12:43.736Z,81.76
2023-05-04T01:15:13.851Z,81.93
2023-05-04T01:17:42.795Z,82.40
2023-05-04T01:20:14.087Z,82.45
2023-05-04T01:22:43.488Z,82.78
2023-05-04T01:25:11.902Z,82.81
2023-05-04T01:27:46.138Z,82.96
2023-05-04T01:30:19.100Z,83.00
2023-05-04T01:32:49.053Z,82.94
2023-05-04T01:35:17.599Z,82.85
2023-05-04T01:37:47.424Z,82.90
2023-05-04T01:40:16.259Z,83.15
2023-05-04T01:42:47.608Z,83.49
2023-05-04T01:45:15.927Z,83.55
2023-05-04T01:47:45.221Z,83.97
2023-05-04T01:50:13.844Z,84.24
2023-05-04T01:52:42.315Z,84.71
2023-05-04T01:55:12.856Z,85.05
2023-05-04T01:57:41.063Z,85.51
2023-05-04T02:00:12.464Z,85.75
2023-05-04T02:02:41.197Z,85.81
2023-05-04T02:05:12.708Z,85.68
2023-05-04T02:07:43.236Z,85.85
2023-05-04T02:10:14.002Z,86.00
2023-05-04T02:12:43.296Z,85.95
2023-05-04T02:15:12.348Z,85.91
2023-05-04T02:17:40.658Z,86.10
2023-05-04T02:20:10.760Z,86.27
2023-05-04T02:22:38.908Z,86.25
2023-05-04T02:25:08.484Z,86.22
2023-05-04T02:27:37.935Z,86.38
2023-05-04T02:30:07.641Z,86.53
2023-05-04T02:32:36.804Z,86.69
2023-05-04T02:35:07.685Z,86.71
2023-05-04T02:37:36.304Z,87.04
2023-05-04T02:40:05.488Z,87.47
2023-05-04T02:42:34.057Z,87.77
2023-05-04T02:45:03.933Z,87.79
2023-05-04T02:47:33.672Z,88.05
2023-05-04T02:50:02.413Z,88.15
2023-05-04T02:52:34.962Z,88.51
2023-05-04T02:55:03.790Z,88.84
2023-05-04T02:57:33.271Z,89.01
2023-05-04T03:00:05.632Z,89.07
2023-05-04T03:02:35.273Z,89.38
2023-05-04T03:05:03.554Z,89.44
2023-05-04T03:07:32.147Z,89.41
2023-05-04T03:10:00.465Z,89.53
2023-05-04T03:12:30.334Z,89.69
2023-05-04T03:14:58.757Z,89.89
2023-05-04T03:17:29.621Z,90.07
2023-05-04T03:19:58.268Z,90.02
2023-05-04T03:22:29.278Z,89.87
2023-05-04T03:24:57.950Z,89.79
2023-05-04T03:27:26.801Z,89.84
2023-05-04T03:29:56.225Z,89.99
2023-05-04T03:32:24.964Z,90.17
2023-05-04T03:34:56.271Z,90.12
2023-05-04T03:37:26.247Z,90.19
2023-05-04T03:39:54.261Z,90.40
2023-05-04T03:42:22.258Z,90.44
2023-05-04T03:44:50.701Z,90.46
2023-05-04T03:47:19.010Z,90.56
2023-05-04T03:49:47.711Z,90.63
2023-05-04T03:52:19.484Z,90.71
2023-05-04T03:54:48.192Z,90.82
2023-05-04T03:57:16.263Z,91.14
2023-05-04T03:59:44.449Z,91.62
2023-05-04T04:02:13.889Z,92.12
2023-05-04T04:04:45.327Z,92.41
2023-05-04T04:07:13.779Z,92.29
2023-05-04T04:09:45.006Z,91.80
2023-05-04T04:12:13.284Z,90.83
2023-05-04T04:14:41.566Z,88.40
2023-05-04T04:17:09.914Z,86.27
2023-05-04T04:19:38.553Z,84.59
2023-05-04T04:22:06.767Z,83.12
2023-05-04T04:24:35.242Z,81.45
2023-05-04T04:27:06.428Z,80.26
2023-05-04T04:29:35.921Z,78.71
2023-05-04T04:32:08.593Z,76.56
2023-05-04T04:34:37.202Z,74.87
2023-05-04T04:37:05.246Z,73.70
2023-05-04T04:39:33.795Z,71.83
2023-05-04T04:42:02.669Z,70.78
2023-05-04T04:44:32.315Z,69.43
2023-05-04T04:47:01.087Z,68.48
2023-05-04T04:49:29.219Z,68.19
2023-05-04T04:51:57.467Z,66.85
2023-05-04T04:54:26.174Z,66.78
2023-05-04T04:56:55.003Z,64.01
2023-05-04T04:59:24.715Z,63.75
2023-05-04T05:01:54.276Z,63.62
2023-05-04T05:04:22.771Z,62.04
2023-05-04T05:06:51.824Z,61.88
2023-05-04T05:09:20.123Z,59.35
2023-05-04T05:11:48.482Z,59.28
2023-05-04T05:14:16.703Z,58.02
2023-05-04T05:16:44.842Z,59.02
2023-05-04T05:19:14.776Z,57.93
2023-05-04T05:21:43.001Z,57.31
2023-05-04T05:24:11.702Z,56.49
2023-05-04T05:26:39.716Z,57.64
2023-05-04T05:29:08.539Z,55.68
2023-05-04T05:31:36.887Z,55.43
2023-05-04T05:34:05.035Z,55.37
2023-05-04T05:36:34.503Z,54.42
2023-05-04T05:39:04.975Z,52.42
2023-05-04T05:41:35.261Z,51.41
2023-05-04T05:44:04.394Z,51.81
2023-05-04T05:46:33.964Z,52.44
2023-05-04T05:49:02.331Z,53.19
2023-05-04T05:51:30.617Z,52.34
2023-05-04T05:54:03.234Z,51.12
2023-05-04T05:56:31.236Z,51.10
2023-05-04T05:59:00.181Z,50.93
2023-05-04T06:01:29.710Z,50.85
2023-05-04T06:03:58.031Z,52.15
2023-05-04T06:06:26.463Z,50.04
2023-05-04T06:08:54.722Z,49.32
2023-05-04T06:11:24.376Z,48.06
2023-05-04T06:13:53.627Z,47.88
2023-05-04T06:16:22.608Z,46.24
2023-05-04T06:18:52.086Z,46.05
2023-05-04T06:21:20.108Z,45.62
2023-05-04T06:23:48.726Z,45.22
2023-05-04T06:26:17.189Z,43.94
2023-05-04T06:28:47.084Z,44.49
2023-05-04T06:31:16.147Z,43.68
2023-05-04T06:33:44.635Z,43.08
2023-05-04T06:36:15.414Z,42.04
2023-05-04T06:38:44.233Z,41.85
2023-05-04T06:41:12.624Z,41.40
2023-05-04T06:43:42.588Z,40.55
2023-05-04T06:46:19.082Z,40.28
2023-05-04T06:48:47.442Z,40.05
2023-05-04T06:51:16.254Z,39.81
2023-05-04T06:53:44.786Z,38.38
2023-05-04T06:56:17.182Z,38.42
2023-05-04T06:58:45.910Z,38.81
2023-05-04T07:01:16.966Z,38.59
2023-05-04T07:03:46.435Z,39.42
2023-05-04T07:06:14.594Z,38.26
2023-05-04T07:08:43.017Z,37.72
2023-05-04T07:11:12.456Z,37.79
2023-05-04T07:13:42.419Z,38.16
2023-05-04T07:16:10.782Z,38.41
2023-05-04T07:18:40.807Z,39.30
2023-05-04T07:21:26.729Z,37.46
2023-05-04T07:23:56.956Z,36.86
2023-05-04T07:26:25.644Z,38.59
2023-05-04T07:28:53.990Z,39.23
2023-05-04T07:31:21.964Z,37.50
2023-05-04T07:33:51.950Z,38.54
2023-05-04T07:36:20.612Z,38.10
2023-05-04T07:38:49.118Z,36.77
2023-05-04T07:41:17.299Z,37.51
2023-05-04T07:43:45.803Z,37.52
2023-05-04T07:46:16.520Z,36.34
2023-05-04T07:48:45.451Z,35.63
2023-05-04T07:51:16.389Z,36.10
2023-05-04T07:53:44.595Z,35.04
2023-05-04T07:56:13.880Z,34.96
2023-05-04T07:58:42.368Z,35.54
2023-05-04T08:01:10.835Z,34.88
2023-05-04T08:03:39.767Z,35.05
2023-05-04T08:06:09.491Z,35.95
2023-05-04T08:08:41.436Z,34.57
2023-05-04T08:11:20.109Z,35.99
2023-05-04T08:13:50.098Z,34.77
2023-05-04T08:16:18.064Z,34.21
2023-05-04T08:18:46.208Z,33.19
2023-05-04T08:21:20.434Z,32.75
2023-05-04T08:23:50.757Z,31.82
2023-05-04T08:26:19.777Z,33.07
2023-05-04T08:28:48.969Z,32.72
2023-05-04T08:31:18.642Z,31.55
2023-05-04T08:33:47.127Z,33.35
2023-05-04T08:36:16.062Z,32.89
2023-05-04T08:38:44.174Z,31.70
2023-05-04T08:41:13.862Z,32.42
2023-05-04T08:43:41.902Z,33.92
2023-05-04T08:46:10.810Z,33.58
2023-05-04T08:48:43.046Z,34.47
2023-05-04T08:51:11.322Z,35.02
2023-05-04T08:53:45.641Z,36.19
2023-05-04T08:56:16.504Z,35.36
2023-05-04T08:58:49.655Z,35.35
2023-05-04T09:01:18.670Z,35.06
2023-05-04T09:03:48.367Z,34.76
2023-05-04T09:06:16.560Z,33.93
2023-05-04T09:08:46.694Z,34.26
2023-05-04T09:11:16.577Z,33.99
2023-05-04T09:13:44.785Z,33.72
2023-05-04T09:16:15.010Z,32.86
2023-05-04T09:18:44.750Z,33.26
2023-05-04T09:21:13.458Z,33.30
2023-05-04T09:23:51.745Z,33.86
2023-05-04T09:26:29.681Z,33.62
2023-05-04T09:29:00.781Z,33.67
2023-05-04T09:31:30.936Z,33.71
2023-05-04T09:34:09.889Z,34.56
2023-05-04T09:36:39.093Z,35.61
2023-05-04T09:39:11.574Z,36.40
2023-05-04T09:41:42.100Z,35.16
2023-05-04T09:44:19.161Z,34.19
2023-05-04T09:46:54.720Z,32.88
2023-05-04T09:49:31.974Z,31.72
2023-05-04T09:52:02.591Z,32.36
2023-05-04T09:54:37.217Z,34.73
2023-05-04T09:57:13.144Z,33.77
2023-05-04T09:59:41.689Z,33.87
2023-05-04T10:02:21.889Z,34.10
2023-05-04T10:04:54.863Z,32.91
2023-05-04T10:07:23.902Z,32.81
2023-05-04T10:09:52.585Z,33.78
2023-05-04T10:12:22.370Z,33.95
2023-05-04T10:14:50.815Z,32.85
2023-05-04T10:17:25.175Z,34.32
2023-05-04T10:20:07.288Z,34.78
2023-05-04T10:22:51.221Z,34.29
2023-05-04T10:25:42.035Z,33.61
2023-05-04T10:28:21.226Z,32.16
2023-05-04T10:30:49.327Z,32.13
2023-05-04T10:33:17.452Z,31.86
2023-05-04T10:35:53.558Z,32.50
2023-05-04T10:38:36.810Z,32.82
2023-05-04T10:41:14.994Z,33.31
2023-05-04T10:43:48.838Z,32.69
2023-05-04T10:46:25.084Z,33.68
2023-05-04T10:48:53.408Z,33.14
2023-05-04T10:51:28.049Z,33.15
2023-05-04T10:54:05.193Z,33.44
2023-05-04T10:56:33.568Z,32.93
2023-05-04T10:59:10.885Z,32.18
2023-05-04T11:01:43.454Z,32.73
2023-05-04T11:04:22.505Z,32.24
2023-05-04T11:06:58.149Z,30.84
2023-05-04T11:09:29.324Z,30.72
2023-05-04T11:11:57.928Z,31.06
2023-05-04T11:14:28.682Z,31.61
2023-05-04T11:17:23.897Z,33.16
2023-05-04T11:19:55.695Z,33.95
2023-05-04T11:22:23.863Z,35.50
2023-05-04T11:24:54.150Z,35.90
2023-05-04T11:27:24.408Z,35.35
2023-05-04T11:29:58.431Z,34.16
2023-05-04T11:32:36.669Z,34.01
2023-05-04T11:35:06.734Z,33.88
2023-05-04T11:37:40.406Z,33.97
2023-05-04T11:40:14.244Z,36.33
2023-05-04T11:42:43.833Z,35.56
2023-05-04T11:45:15.577Z,35.20
2023-05-04T11:47:44.938Z,35.69
2023-05-04T11:50:14.408Z,33.35
2023-05-04T11:52:43.508Z,35.87
2023-05-04T11:55:12.727Z,36.07
2023-05-04T11:57:41.352Z,34.57
2023-05-04T12:00:10.438Z,35.14
2023-05-04T12:02:40.057Z,35.77
2023-05-04T12:05:14.036Z,35.36
2023-05-04T12:07:42.287Z,34.87
2023-05-04T12:10:11.516Z,35.35
2023-05-04T12:12:39.852Z,34.61
2023-05-04T12:15:10.200Z,35.09
2023-05-04T12:17:48.008Z,35.66
2023-05-04T12:20:24.996Z,35.49
2023-05-04T12:22:53.665Z,35.27
2023-05-04T12:25:22.274Z,35.80
2023-05-04T12:27:50.703Z,36.64
2023-05-04T12:30:19.340Z,36.30
2023-05-04T12:32:48.685Z,35.75
2023-05-04T12:35:17.088Z,38.00
2023-05-04T12:37:45.600Z,36.92
2023-05-04T12:40:27.889Z,36.57
2023-05-04T12:42:56.900Z,36.79
2023-05-04T12:45:25.518Z,36.32
2023-05-04T12:47:55.106Z,35.57
2023-05-04T12:50:23.380Z,36.56
2023-05-04T12:52:52.315Z,36.29
2023-05-04T12:55:22.809Z,37.27
2023-05-04T12:57:52.979Z,35.59
2023-05-04T13:00:21.849Z,37.51
2023-05-04T13:02:50.187Z,36.65
2023-05-04T13:05:20.888Z,36.63
2023-05-04T13:07:49.206Z,36.33
2023-05-04T13:10:18.850Z,35.46
2023-05-04T13:12:47.392Z,37.10
2023-05-04T13:15:15.712Z,36.78
2023-05-04T13:17:44.606Z,38.24
2023-05-04T13:20:13.851Z,37.95
2023-05-04T13:22:43.863Z,36.85
2023-05-04T13:25:12.103Z,37.15
2023-05-04T13:27:40.401Z,37.67
2023-05-04T13:30:11.089Z,36.47
2023-05-04T13:32:40.756Z,37.97
2023-05-04T13:35:09.668Z,36.90
2023-05-04T13:37:38.278Z,37.26
2023-05-04T13:40:10.637Z,36.85
2023-05-04T13:42:40.138Z,37.29
2023-05-04T13:45:10.360Z,36.91
2023-05-04T13:47:41.108Z,38.03
2023-05-04T13:50:09.791Z,35.03
2023-05-04T13:52:38.515Z,35.05
2023-05-04T13:55:16.863Z,34.75
2023-05-04T13:57:45.319Z,35.64
2023-05-04T14:00:17.866Z,35.83
2023-05-04T14:02:46.668Z,36.81
2023-05-04T14:05:14.810Z,36.06
2023-05-04T14:07:43.341Z,37.28
2023-05-04T14:10:13.981Z,36.74
2023-05-04T14:12:42.063Z,36.92
2023-05-04T14:15:10.974Z,36.80
2023-05-04T14:17:39.734Z,37.28
2023-05-04T14:20:10.394Z,38.13
2023-05-04T14:22:41.415Z,37.91
2023-05-04T14:25:11.187Z,38.12
2023-05-04T14:27:40.658Z,37.99
2023-05-04T14:30:10.150Z,38.00
2023-05-04T14:32:38.395Z,36.89
2023-05-04T14:35:09.310Z,36.16
2023-05-04T14:37:39.033Z,36.46
2023-05-04T14:40:08.808Z,35.30
2023-05-04T14:42:38.381Z,35.32
2023-05-04T14:45:11.360Z,35.53
2023-05-04T14:47:42.450Z,35.02
2023-05-04T14:50:12.094Z,34.34
2023-05-04T14:52:40.419Z,34.97
2023-05-04T14:55:10.125Z,34.71
2023-05-04T14:57:38.793Z,34.98
2023-05-04T15:00:12.580Z,34.40
2023-05-04T15:02:40.912Z,34.02
2023-05-04T15:05:12.503Z,34.40
2023-05-04T15:07:41.155Z,34.27
2023-05-04T15:10:11.862Z,33.88
2023-05-04T15:12:43.161Z,33.74
2023-05-04T15:15:13.109Z,34.82
2023-05-04T15:17:41.485Z,34.82
2023-05-04T15:20:11.280Z,34.68
2023-05-04T15:22:41.067Z,34.94
2023-05-04T15:25:09.430Z,35.23
2023-05-04T15:27:37.823Z,35.34
2023-05-04T15:30:08.845Z,35.74
2023-05-04T15:32:38.606Z,34.60
2023-05-04T15:35:08.515Z,34.77
2023-05-04T15:37:36.728Z,35.00
2023-05-04T15:40:06.764Z,34.48
2023-05-04T15:42:35.166Z,33.89
2023-05-04T15:45:04.668Z,34.03
2023-05-04T15:47:34.828Z,36.93
2023-05-04T15:50:06.893Z,37.56
2023-05-04T15:52:35.400Z,38.33
2023-05-04T15:55:16.425Z,37.86
2023-05-04T15:57:52.698Z,36.09
2023-05-04T16:00:22.164Z,35.78
2023-05-04T16:02:50.652Z,37.85
2023-05-04T16:05:20.666Z,37.38
2023-05-04T16:07:48.828Z,36.84
2023-05-04T16:10:17.515Z,37.28
2023-05-04T16:12:45.880Z,36.09
2023-05-04T16:15:18.884Z,36.37
2023-05-04T16:17:47.110Z,36.97
2023-05-04T16:20:17.646Z,36.75
2023-05-04T16:22:48.328Z,36.98
2023-05-04T16:25:16.868Z,35.26
2023-05-04T16:27:45.989Z,36.75
2023-05-04T16:30:15.505Z,35.55
2023-05-04T16:32:45.817Z,35.81
2023-05-04T16:35:13.980Z,36.70
2023-05-04T16:37:42.060Z,36.35
2023-05-04T16:40:14.474Z,36.74
2023-05-04T16:42:44.499Z,36.48
2023-05-04T16:45:18.839Z,35.52
2023-05-04T16:47:49.354Z,35.25
2023-05-04T16:50:19.299Z,36.01
2023-05-04T16:52:47.953Z,36.49
2023-05-04T16:55:19.202Z,37.03
2023-05-04T16:57:47.700Z,37.38
2023-05-04T17:00:16.441Z,36.88
2023-05-04T17:02:45.367Z,37.57
2023-05-04T17:05:14.212Z,36.34
2023-05-04T17:07:43.574Z,37.17
2023-05-04T17:10:12.491Z,37.65
2023-05-04T17:12:42.639Z,35.54
2023-05-04T17:15:12.273Z,35.78
2023-05-04T17:17:42.912Z,35.70
2023-05-04T17:20:15.301Z,36.29
2023-05-04T17:22:45.207Z,36.23
2023-05-04T17:25:17.337Z,36.48
2023-05-04T17:27:46.981Z,37.14
2023-05-04T17:30:16.389Z,37.24
2023-05-04T17:32:44.459Z,38.07
2023-05-04T17:35:23.960Z,37.64
2023-05-04T17:37:56.794Z,37.94
2023-05-04T17:40:27.217Z,38.29
2023-05-04T17:42:57.498Z,38.66
2023-05-04T17:45:26.247Z,38.78
2023-05-04T17:47:55.785Z,39.13
2023-05-04T17:50:25.636Z,39.37
2023-05-04T17:52:54.560Z,39.73
2023-05-04T17:55:23.738Z,39.77
2023-05-04T17:57:54.356Z,40.16
2023-05-04T18:00:24.485Z,40.38
2023-05-04T18:02:52.741Z,40.24
2023-05-04T18:05:20.953Z,40.52
2023-05-04T18:07:49.452Z,40.66
2023-05-04T18:10:18.736Z,40.99
2023-05-04T18:12:47.457Z,41.16
2023-05-04T18:15:17.967Z,41.31
2023-05-04T18:17:48.960Z,41.52
2023-05-04T18:20:17.390Z,41.79
2023-05-04T18:22:46.650Z,42.01
2023-05-04T18:25:15.556Z,42.13
2023-05-04T18:27:43.951Z,42.26
2023-05-04T18:30:12.523Z,42.86
2023-05-04T18:32:40.829Z,43.10
2023-05-04T18:35:11.711Z,43.50
2023-05-04T18:37:40.123Z,43.88
2023-05-04T18:40:13.221Z,44.33
2023-05-04T18:42:42.067Z,44.05
2023-05-04T18:45:12.577Z,44.37
2023-05-04T18:47:40.837Z,44.72
2023-05-04T18:50:11.881Z,45.16
2023-05-04T18:52:40.048Z,45.47
2023-05-04T18:55:08.368Z,45.93
2023-05-04T18:57:36.860Z,46.19
2023-05-04T19:00:07.575Z,45.90
2023-05-04T19:02:36.352Z,46.50
2023-05-04T19:05:05.418Z,46.30
2023-05-04T19:07:35.485Z,46.59
2023-05-04T19:10:04.994Z,46.97
2023-05-04T19:12:33.939Z,46.61
2023-05-04T19:15:03.754Z,46.68
2023-05-04T19:17:34.755Z,46.96
2023-05-04T19:20:03.637Z,47.31
2023-05-04T19:22:31.801Z,47.51
2023-05-04T19:25:01.584Z,48.11
2023-05-04T19:27:30.080Z,48.09
2023-05-04T19:29:58.304Z,48.19
2023-05-04T19:32:26.504Z,47.46
2023-05-04T19:34:54.642Z,47.86
2023-05-04T19:37:23.404Z,47.88
2023-05-04T19:39:52.626Z,47.55
2023-05-04T19:42:22.007Z,48.54
2023-05-04T19:44:50.052Z,47.77
2023-05-04T19:47:18.565Z,47.82
2023-05-04T19:49:48.640Z,48.41
2023-05-04T19:52:18.001Z,48.64
2023-05-04T19:54:48.629Z,48.99
2023-05-04T19:57:16.654Z,49.00
2023-05-04T19:59:47.291Z,48.69
2023-05-04T20:02:16.000Z,49.29
2023-05-04T20:04:44.302Z,49.09
2023-05-04T20:07:12.862Z,49.36
2023-05-04T20:09:41.324Z,49.64
2023-05-04T20:12:10.823Z,50.02
2023-05-04T20:14:40.933Z,50.91
2023-05-04T20:17:11.205Z,50.89
2023-05-04T20:19:40.964Z,51.08
2023-05-04T20:22:10.860Z,51.78
2023-05-04T20:24:41.076Z,52.72
2023-05-04T20:27:10.347Z,53.14
2023-05-04T20:29:40.266Z,53.61
2023-05-04T20:32:09.270Z,54.28
2023-05-04T20:34:39.738Z,54.64
2023-05-04T20:37:08.421Z,55.11
2023-05-04T20:39:40.508Z,55.33
2023-05-04T20:42:08.959Z,55.51
2023-05-04T20:44:37.149Z,55.81
2023-05-04T20:47:05.992Z,55.78
2023-05-04T20:49:34.232Z,55.89
2023-05-04T20:52:04.351Z,55.78
2023-05-04T20:54:32.656Z,55.80
2023-05-04T20:57:01.515Z,55.76
2023-05-04T20:59:29.952Z,55.54
2023-05-04T21:02:01.580Z,55.72
2023-05-04T21:04:30.166Z,55.34
2023-05-04T21:06:58.542Z,55.16
2023-05-04T21:09:28.066Z,55.17
2023-05-04T21:11:56.380Z,55.02
2023-05-04T21:14:25.177Z,55.19
2023-05-04T21:16:53.378Z,55.23
2023-05-04T21:19:23.193Z,55.50
2023-05-04T21:21:51.547Z,55.55
2023-05-04T21:24:21.285Z,55.86
2023-05-04T21:26:51.640Z,55.99
2023-05-04T21:29:19.982Z,55.63
2023-05-04T21:31:48.244Z,55.93
2023-05-04T21:34:16.667Z,56.09
2023-05-04T21:36:48.101Z,56.24
2023-05-04T21:39:16.943Z,56.51
2023-05-04T21:41:44.934Z,56.65
2023-05-04T21:44:14.827Z,56.83
2023-05-04T21:46:45.128Z,56.93
2023-05-04T21:49:15.618Z,56.98
2023-05-04T21:51:44.425Z,57.12
2023-05-04T21:54:12.638Z,57.24
2023-05-04T21:56:41.889Z,57.48
2023-05-04T21:59:13.088Z,57.69
2023-05-04T22:01:44.077Z,58.02
2023-05-04T22:04:12.856Z,58.18
2023-05-04T22:06:41.831Z,58.20
2023-05-04T22:09:10.553Z,58.42
2023-05-04T22:11:39.218Z,58.52
2023-05-04T22:14:07.386Z,58.71
2023-05-04T22:16:36.113Z,59.10
2023-05-04T22:19:08.310Z,59.43
2023-05-04T22:21:39.249Z,59.64
2023-05-04T22:24:09.274Z,59.89
2023-05-04T22:26:39.922Z,60.23
2023-05-04T22:29:08.271Z,60.42
2023-05-04T22:31:37.272Z,60.56
2023-05-04T22:34:08.445Z,60.78
2023-05-04T22:36:39.161Z,61.10
2023-05-04T22:39:10.919Z,61.24
2023-05-04T22:41:44.495Z,61.19
2023-05-04T22:44:12.897Z,61.28
2023-05-04T22:46:41.283Z,61.29
2023-05-04T22:49:11.543Z,61.48
2023-05-04T22:51:39.916Z,61.70
2023-05-04T22:54:08.334Z,61.95
2023-05-04T22:56:38.736Z,62.08
2023-05-04T22:59:06.820Z,61.85
2023-05-04T23:01:43.508Z,61.75
2023-05-04T23:04:13.522Z,61.84
2023-05-04T23:06:41.656Z,62.03
2023-05-04T23:09:10.280Z,62.46
2023-05-04T23:11:38.430Z,62.23
2023-05-04T23:14:08.235Z,62.45
2023-05-04T23:16:36.473Z,62.74
2023-05-04T23:19:04.837Z,63.16
2023-05-04T23:21:35.146Z,63.35
2023-05-04T23:24:03.500Z,63.77
2023-05-04T23:26:31.638Z,64.16
2023-05-04T23:29:00.240Z,64.53
2023-05-04T23:31:30.150Z,64.72
2023-05-04T23:33:58.483Z,65.04
2023-05-04T23:36:29.369Z,65.25
2023-05-04T23:38:59.089Z,65.57
2023-05-04T23:41:27.476Z,65.84
2023-05-04T23:43:55.668Z,66.10
2023-05-04T23:46:24.422Z,66.45
2023-05-04T23:48:53.104Z,66.69
2023-05-04T23:51:21.652Z,66.99
2023-05-04T23:53:49.977Z,67.26
2023-05-04T23:56:19.371Z,67.65
2023-05-04T23:58:47.409Z,67.69
